sensor_id;sensor_type;location;lat;lon;timestamp;P1;durP1;ratioP1;P2;durP2;ratioP2
59922;SDS011;45778;51.142;3.732;2022-11-25T00:01:23;0.52;;;0.08;;
59922;SDS011;45778;51.142;3.732;2022-11-25T00:03:51;0.00;;;0.00;;
59922;SDS011;45778;51.142;3.732;2022-11-25T00:09:10;0.00;;;0.00;;
59922;SDS011;45778;51.142;3.732;2022-11-25T00:11:37;0.00;;;0.00;;
59922;SDS011;45778;51.142;3.732;2022-11-25T00:14:05;0.00;;;0.00;;
59922;SDS011;45778;51.142;3.732;2022-11-25T00:16:32;0.00;;;0.00;;
59922;SDS011;45778;51.142;3.732;2022-11-25T00:18:59;0.00;;;0.00;;
59922;SDS011;45778;51.142;3.732;2022-11-25T00:21:26;0.05;;;0.05;;
59922;SDS011;45778;51.142;3.732;2022-11-25T00:23:57;0.00;;;0.00;;
59922;SDS011;45778;51.142;3.732;2022-11-25T00:26:25;0.22;;;0.22;;
59922;SDS011;45778;51.142;3.732;2022-11-25T00:28:52;0.00;;;0.00;;
59922;SDS011;45778;51.142;3.732;2022-11-25T00:31:20;0.38;;;0.38;;
59922;SDS011;45778;51.142;3.732;2022-11-25T00:33:47;0.00;;;0.00;;
59922;SDS011;45778;51.142;3.732;2022-11-25T00:36:18;0.00;;;0.00;;
59922;SDS011;45778;51.142;3.732;2022-11-25T00:38:45;1.95;;;0.93;;
59922;SDS011;45778;51.142;3.732;2022-11-25T00:41:12;0.00;;;0.00;;
59922;SDS011;45778;51.142;3.732;2022-11-25T00:43:56;0.00;;;0.00;;
59922;SDS011;45778;51.142;3.732;2022-11-25T00:46:40;0.50;;;0.50;;
59922;SDS011;45778;51.142;3.732;2022-11-25T00:49:07;0.05;;;0.05;;
59922;SDS011;45778;51.142;3.732;2022-11-25T00:51:33;0.00;;;0.00;;
59922;SDS011;45778;51.142;3.732;2022-11-25T00:53:58;0.00;;;0.00;;
59922;SDS011;45778;51.142;3.732;2022-11-25T00:56:24;1.85;;;0.55;;
59922;SDS011;45778;51.142;3.732;2022-11-25T00:58:51;0.00;;;0.00;;
59922;SDS011;45778;51.142;3.732;2022-11-25T01:01:18;0.00;;;0.00;;
59922;SDS011;45778;51.142;3.732;2022-11-25T01:03:43;0.00;;;0.00;;
59922;SDS011;45778;51.142;3.732;2022-11-25T01:06:12;0.00;;;0.00;;
59922;SDS011;45778;51.142;3.732;2022-11-25T01:08:38;0.00;;;0.00;;
59922;SDS011;45778;51.142;3.732;2022-11-25T01:11:04;0.00;;;0.00;;
59922;SDS011;45778;51.142;3.732;2022-11-25T01:13:32;0.00;;;0.00;;
59922;SDS011;45778;51.142;3.732;2022-11-25T01:16:05;0.00;;;0.00;;
59922;SDS011;45778;51.142;3.732;2022-11-25T01:18:32;0.00;;;0.00;;
59922;SDS011;45778;51.142;3.732;2022-11-25T01:21:08;0.00;;;0.00;;
59922;SDS011;45778;51.142;3.732;2022-11-25T01:23:42;0.03;;;0.03;;
59922;SDS011;45778;51.142;3.732;2022-11-25T01:26:12;0.00;;;0.00;;
59922;SDS011;45778;51.142;3.732;2022-11-25T01:28:40;0.00;;;0.00;;
59922;SDS011;45778;51.142;3.732;2022-11-25T01:31:07;0.30;;;0.30;;
59922;SDS011;45778;51.142;3.732;2022-11-25T01:33:38;0.00;;;0.00;;
59922;SDS011;45778;51.142;3.732;2022-11-25T01:36:08;0.00;;;0.00;;
59922;SDS011;45778;51.142;3.732;2022-11-25T01:38:36;1.75;;;0.75;;
59922;SDS011;45778;51.142;3.732;2022-11-25T01:41:02;0.00;;;0.00;;
59922;SDS011;45778;51.142;3.732;2022-11-25T01:43:29;0.00;;;0.00;;
59922;SDS011;45778;51.142;3.732;2022-11-25T01:46:19;0.00;;;0.00;;
59922;SDS011;45778;51.142;3.732;2022-11-25T01:51:35;0.00;;;0.00;;
59922;SDS011;45778;51.142;3.732;2022-11-25T01:54:05;0.00;;;0.00;;
59922;SDS011;45778;51.142;3.732;2022-11-25T01:56:37;0.35;;;0.35;;
59922;SDS011;45778;51.142;3.732;2022-11-25T01:59:08;0.00;;;0.00;;
59922;SDS011;45778;51.142;3.732;2022-11-25T02:01:34;0.00;;;0.00;;
59922;SDS011;45778;51.142;3.732;2022-11-25T02:04:00;0.00;;;0.00;;
59922;SDS011;45778;51.142;3.732;2022-11-25T02:06:27;0.00;;;0.00;;
59922;SDS011;45778;51.142;3.732;2022-11-25T02:09:03;0.00;;;0.00;;
59922;SDS011;45778;51.142;3.732;2022-11-25T02:11:30;0.00;;;0.00;;
59922;SDS011;45778;51.142;3.732;2022-11-25T02:13:58;0.00;;;0.00;;
59922;SDS011;45778;51.142;3.732;2022-11-25T02:16:24;0.00;;;0.00;;
59922;SDS011;45778;51.142;3.732;2022-11-25T02:18:50;0.00;;;0.00;;
59922;SDS011;45778;51.142;3.732;2022-11-25T02:21:17;0.00;;;0.00;;
59922;SDS011;45778;51.142;3.732;2022-11-25T02:24:00;0.00;;;0.00;;
59922;SDS011;45778;51.142;3.732;2022-11-25T02:26:46;0.10;;;0.10;;
59922;SDS011;45778;51.142;3.732;2022-11-25T02:29:12;0.00;;;0.00;;
59922;SDS011;45778;51.142;3.732;2022-11-25T02:31:38;0.03;;;0.03;;
59922;SDS011;45778;51.142;3.732;2022-11-25T02:34:03;0.00;;;0.00;;
59922;SDS011;45778;51.142;3.732;2022-11-25T02:36:29;0.00;;;0.00;;
59922;SDS011;45778;51.142;3.732;2022-11-25T02:38:56;0.00;;;0.00;;
59922;SDS011;45778;51.142;3.732;2022-11-25T02:43:56;0.00;;;0.00;;
59922;SDS011;45778;51.142;3.732;2022-11-25T02:46:22;2.08;;;1.25;;
59922;SDS011;45778;51.142;3.732;2022-11-25T02:48:50;0.00;;;0.00;;
59922;SDS011;45778;51.142;3.732;2022-11-25T02:51:18;0.00;;;0.00;;
59922;SDS011;45778;51.142;3.732;2022-11-25T02:53:45;0.00;;;0.00;;
59922;SDS011;45778;51.142;3.732;2022-11-25T02:56:11;0.00;;;0.00;;
59922;SDS011;45778;51.142;3.732;2022-11-25T02:58:38;0.00;;;0.00;;
59922;SDS011;45778;51.142;3.732;2022-11-25T03:01:05;0.00;;;0.00;;
59922;SDS011;45778;51.142;3.732;2022-11-25T03:03:31;0.75;;;0.75;;
59922;SDS011;45778;51.142;3.732;2022-11-25T03:05:56;0.00;;;0.00;;
59922;SDS011;45778;51.142;3.732;2022-11-25T03:08:22;0.00;;;0.00;;
59922;SDS011;45778;51.142;3.732;2022-11-25T03:10:48;0.00;;;0.00;;
59922;SDS011;45778;51.142;3.732;2022-11-25T03:13:14;0.35;;;0.35;;
59922;SDS011;45778;51.142;3.732;2022-11-25T03:15:39;0.00;;;0.00;;
59922;SDS011;45778;51.142;3.732;2022-11-25T03:18:05;0.00;;;0.00;;
59922;SDS011;45778;51.142;3.732;2022-11-25T03:20:32;0.35;;;0.35;;
59922;SDS011;45778;51.142;3.732;2022-11-25T03:22:59;0.00;;;0.00;;
59922;SDS011;45778;51.142;3.732;2022-11-25T03:25:25;0.00;;;0.00;;
59922;SDS011;45778;51.142;3.732;2022-11-25T03:27:51;0.00;;;0.00;;
59922;SDS011;45778;51.142;3.732;2022-11-25T03:30:18;0.00;;;0.00;;
59922;SDS011;45778;51.142;3.732;2022-11-25T03:32:45;0.00;;;0.00;;
59922;SDS011;45778;51.142;3.732;2022-11-25T03:35:12;0.00;;;0.00;;
59922;SDS011;45778;51.142;3.732;2022-11-25T03:37:38;0.00;;;0.00;;
59922;SDS011;45778;51.142;3.732;2022-11-25T03:40:05;0.00;;;0.00;;
59922;SDS011;45778;51.142;3.732;2022-11-25T03:42:31;0.00;;;0.00;;
59922;SDS011;45778;51.142;3.732;2022-11-25T03:44:57;0.00;;;0.00;;
59922;SDS011;45778;51.142;3.732;2022-11-25T03:47:23;0.00;;;0.00;;
59922;SDS011;45778;51.142;3.732;2022-11-25T03:49:49;0.00;;;0.00;;
59922;SDS011;45778;51.142;3.732;2022-11-25T03:52:15;0.00;;;0.00;;
59922;SDS011;45778;51.142;3.732;2022-11-25T03:54:40;0.00;;;0.00;;
59922;SDS011;45778;51.142;3.732;2022-11-25T03:57:06;0.00;;;0.00;;
59922;SDS011;45778;51.142;3.732;2022-11-25T03:59:32;0.00;;;0.00;;
59922;SDS011;45778;51.142;3.732;2022-11-25T04:01:57;0.00;;;0.00;;
59922;SDS011;45778;51.142;3.732;2022-11-25T04:04:23;0.00;;;0.00;;
59922;SDS011;45778;51.142;3.732;2022-11-25T04:06:49;0.00;;;0.00;;
59922;SDS011;45778;51.142;3.732;2022-11-25T04:09:14;0.00;;;0.00;;
59922;SDS011;45778;51.142;3.732;2022-11-25T04:11:40;0.00;;;0.00;;
59922;SDS011;45778;51.142;3.732;2022-11-25T04:14:25;0.00;;;0.00;;
59922;SDS011;45778;51.142;3.732;2022-11-25T04:16:50;0.00;;;0.00;;
59922;SDS011;45778;51.142;3.732;2022-11-25T04:19:16;0.00;;;0.00;;
59922;SDS011;45778;51.142;3.732;2022-11-25T04:21:42;0.00;;;0.00;;
59922;SDS011;45778;51.142;3.732;2022-11-25T04:24:08;0.00;;;0.00;;
59922;SDS011;45778;51.142;3.732;2022-11-25T04:26:33;0.00;;;0.00;;
59922;SDS011;45778;51.142;3.732;2022-11-25T04:28:59;0.00;;;0.00;;
59922;SDS011;45778;51.142;3.732;2022-11-25T04:31:25;0.00;;;0.00;;
59922;SDS011;45778;51.142;3.732;2022-11-25T04:33:50;0.00;;;0.00;;
59922;SDS011;45778;51.142;3.732;2022-11-25T04:36:16;0.00;;;0.00;;
59922;SDS011;45778;51.142;3.732;2022-11-25T04:38:42;0.00;;;0.00;;
59922;SDS011;45778;51.142;3.732;2022-11-25T04:41:08;0.05;;;0.05;;
59922;SDS011;45778;51.142;3.732;2022-11-25T04:43:34;0.00;;;0.00;;
59922;SDS011;45778;51.142;3.732;2022-11-25T04:46:00;0.08;;;0.08;;
59922;SDS011;45778;51.142;3.732;2022-11-25T04:48:26;0.00;;;0.00;;
59922;SDS011;45778;51.142;3.732;2022-11-25T04:50:53;0.30;;;0.30;;
59922;SDS011;45778;51.142;3.732;2022-11-25T04:53:18;0.00;;;0.00;;
59922;SDS011;45778;51.142;3.732;2022-11-25T04:55:44;0.00;;;0.00;;
59922;SDS011;45778;51.142;3.732;2022-11-25T04:58:10;0.47;;;0.47;;
59922;SDS011;45778;51.142;3.732;2022-11-25T05:00:36;0.00;;;0.00;;
59922;SDS011;45778;51.142;3.732;2022-11-25T05:03:02;0.00;;;0.00;;
59922;SDS011;45778;51.142;3.732;2022-11-25T05:05:28;0.00;;;0.00;;
59922;SDS011;45778;51.142;3.732;2022-11-25T05:07:54;0.00;;;0.00;;
59922;SDS011;45778;51.142;3.732;2022-11-25T05:10:21;0.00;;;0.00;;
59922;SDS011;45778;51.142;3.732;2022-11-25T05:12:46;0.00;;;0.00;;
59922;SDS011;45778;51.142;3.732;2022-11-25T05:15:12;0.00;;;0.00;;
59922;SDS011;45778;51.142;3.732;2022-11-25T05:17:38;0.00;;;0.00;;
59922;SDS011;45778;51.142;3.732;2022-11-25T05:20:04;0.00;;;0.00;;
59922;SDS011;45778;51.142;3.732;2022-11-25T05:22:31;0.00;;;0.00;;
59922;SDS011;45778;51.142;3.732;2022-11-25T05:24:58;0.00;;;0.00;;
59922;SDS011;45778;51.142;3.732;2022-11-25T05:27:24;0.20;;;0.20;;
59922;SDS011;45778;51.142;3.732;2022-11-25T05:29:51;0.17;;;0.17;;
59922;SDS011;45778;51.142;3.732;2022-11-25T05:32:16;0.00;;;0.00;;
59922;SDS011;45778;51.142;3.732;2022-11-25T05:34:42;0.00;;;0.00;;
59922;SDS011;45778;51.142;3.732;2022-11-25T05:37:08;0.00;;;0.00;;
59922;SDS011;45778;51.142;3.732;2022-11-25T05:39:36;0.00;;;0.00;;
59922;SDS011;45778;51.142;3.732;2022-11-25T05:42:02;0.00;;;0.00;;
59922;SDS011;45778;51.142;3.732;2022-11-25T05:44:28;0.00;;;0.00;;
59922;SDS011;45778;51.142;3.732;2022-11-25T05:46:54;0.00;;;0.00;;
59922;SDS011;45778;51.142;3.732;2022-11-25T05:49:19;0.38;;;0.38;;
59922;SDS011;45778;51.142;3.732;2022-11-25T05:51:45;0.00;;;0.00;;
59922;SDS011;45778;51.142;3.732;2022-11-25T05:54:11;0.00;;;0.00;;
59922;SDS011;45778;51.142;3.732;2022-11-25T05:56:37;0.00;;;0.00;;
59922;SDS011;45778;51.142;3.732;2022-11-25T05:59:03;0.00;;;0.00;;
59922;SDS011;45778;51.142;3.732;2022-11-25T06:01:30;0.00;;;0.00;;
59922;SDS011;45778;51.142;3.732;2022-11-25T06:04:00;0.00;;;0.00;;
59922;SDS011;45778;51.142;3.732;2022-11-25T06:06:27;0.00;;;0.00;;
59922;SDS011;45778;51.142;3.732;2022-11-25T06:08:53;0.00;;;0.00;;
59922;SDS011;45778;51.142;3.732;2022-11-25T06:11:19;0.00;;;0.00;;
59922;SDS011;45778;51.142;3.732;2022-11-25T06:13:45;0.00;;;0.00;;
59922;SDS011;45778;51.142;3.732;2022-11-25T06:16:12;0.00;;;0.00;;
59922;SDS011;45778;51.142;3.732;2022-11-25T06:18:40;0.00;;;0.00;;
59922;SDS011;45778;51.142;3.732;2022-11-25T06:21:06;0.00;;;0.00;;
59922;SDS011;45778;51.142;3.732;2022-11-25T06:23:32;36.78;;;1.88;;
59922;SDS011;45778;51.142;3.732;2022-11-25T06:26:12;2.28;;;1.27;;
59922;SDS011;45778;51.142;3.732;2022-11-25T06:28:40;0.25;;;0.25;;
59922;SDS011;45778;51.142;3.732;2022-11-25T06:31:10;0.00;;;0.00;;
59922;SDS011;45778;51.142;3.732;2022-11-25T06:33:40;0.65;;;0.65;;
59922;SDS011;45778;51.142;3.732;2022-11-25T06:36:06;1.75;;;1.00;;
59922;SDS011;45778;51.142;3.732;2022-11-25T06:38:37;0.15;;;0.15;;
59922;SDS011;45778;51.142;3.732;2022-11-25T06:41:04;0.00;;;0.00;;
59922;SDS011;45778;51.142;3.732;2022-11-25T06:43:30;1.42;;;1.30;;
59922;SDS011;45778;51.142;3.732;2022-11-25T06:46:03;0.00;;;0.00;;
59922;SDS011;45778;51.142;3.732;2022-11-25T06:48:31;0.08;;;0.08;;
59922;SDS011;45778;51.142;3.732;2022-11-25T06:50:57;0.00;;;0.00;;
59922;SDS011;45778;51.142;3.732;2022-11-25T06:53:24;0.00;;;0.00;;
59922;SDS011;45778;51.142;3.732;2022-11-25T06:58:35;0.00;;;0.00;;
59922;SDS011;45778;51.142;3.732;2022-11-25T07:01:02;0.03;;;0.03;;
59922;SDS011;45778;51.142;3.732;2022-11-25T07:03:30;0.45;;;0.45;;
59922;SDS011;45778;51.142;3.732;2022-11-25T07:05:56;0.10;;;0.10;;
59922;SDS011;45778;51.142;3.732;2022-11-25T07:08:23;0.22;;;0.22;;
59922;SDS011;45778;51.142;3.732;2022-11-25T07:10:50;0.45;;;0.45;;
59922;SDS011;45778;51.142;3.732;2022-11-25T07:13:15;0.17;;;0.17;;
59922;SDS011;45778;51.142;3.732;2022-11-25T07:15:41;0.00;;;0.00;;
59922;SDS011;45778;51.142;3.732;2022-11-25T07:18:07;0.30;;;0.30;;
59922;SDS011;45778;51.142;3.732;2022-11-25T07:20:32;0.00;;;0.00;;
59922;SDS011;45778;51.142;3.732;2022-11-25T07:22:58;0.40;;;0.40;;
59922;SDS011;45778;51.142;3.732;2022-11-25T07:25:24;0.08;;;0.08;;
59922;SDS011;45778;51.142;3.732;2022-11-25T07:27:49;2.53;;;1.35;;
59922;SDS011;45778;51.142;3.732;2022-11-25T07:30:15;0.13;;;0.13;;
59922;SDS011;45778;51.142;3.732;2022-11-25T07:32:41;0.30;;;0.30;;
59922;SDS011;45778;51.142;3.732;2022-11-25T07:35:07;0.00;;;0.00;;
59922;SDS011;45778;51.142;3.732;2022-11-25T07:37:32;0.13;;;0.13;;
59922;SDS011;45778;51.142;3.732;2022-11-25T07:39:58;0.25;;;0.25;;
59922;SDS011;45778;51.142;3.732;2022-11-25T07:42:24;1.08;;;0.65;;
59922;SDS011;45778;51.142;3.732;2022-11-25T07:44:49;0.25;;;0.25;;
59922;SDS011;45778;51.142;3.732;2022-11-25T07:47:15;0.00;;;0.00;;
59922;SDS011;45778;51.142;3.732;2022-11-25T07:49:41;0.00;;;0.00;;
59922;SDS011;45778;51.142;3.732;2022-11-25T07:52:07;0.00;;;0.00;;
59922;SDS011;45778;51.142;3.732;2022-11-25T07:54:33;0.20;;;0.20;;
59922;SDS011;45778;51.142;3.732;2022-11-25T07:56:59;0.00;;;0.00;;
59922;SDS011;45778;51.142;3.732;2022-11-25T07:59:25;0.10;;;0.10;;
59922;SDS011;45778;51.142;3.732;2022-11-25T08:01:51;0.32;;;0.32;;
59922;SDS011;45778;51.142;3.732;2022-11-25T08:04:18;0.08;;;0.08;;
59922;SDS011;45778;51.142;3.732;2022-11-25T08:06:45;2.72;;;1.05;;
59922;SDS011;45778;51.142;3.732;2022-11-25T08:09:13;1.00;;;0.95;;
59922;SDS011;45778;51.142;3.732;2022-11-25T08:11:42;0.90;;;0.90;;
59922;SDS011;45778;51.142;3.732;2022-11-25T08:14:09;0.00;;;0.00;;
59922;SDS011;45778;51.142;3.732;2022-11-25T08:16:35;0.35;;;0.35;;
59922;SDS011;45778;51.142;3.732;2022-11-25T08:19:03;0.00;;;0.00;;
59922;SDS011;45778;51.142;3.732;2022-11-25T08:21:30;0.00;;;0.00;;
59922;SDS011;45778;51.142;3.732;2022-11-25T08:23:56;0.00;;;0.00;;
59922;SDS011;45778;51.142;3.732;2022-11-25T08:28:50;0.25;;;0.25;;
59922;SDS011;45778;51.142;3.732;2022-11-25T08:31:21;0.00;;;0.00;;
59922;SDS011;45778;51.142;3.732;2022-11-25T08:33:49;0.00;;;0.00;;
59922;SDS011;45778;51.142;3.732;2022-11-25T08:36:15;0.00;;;0.00;;
59922;SDS011;45778;51.142;3.732;2022-11-25T08:38:42;0.00;;;0.00;;
59922;SDS011;45778;51.142;3.732;2022-11-25T08:41:14;0.00;;;0.00;;
59922;SDS011;45778;51.142;3.732;2022-11-25T08:43:41;0.00;;;0.00;;
59922;SDS011;45778;51.142;3.732;2022-11-25T08:46:12;0.52;;;0.50;;
59922;SDS011;45778;51.142;3.732;2022-11-25T08:48:40;0.00;;;0.00;;
59922;SDS011;45778;51.142;3.732;2022-11-25T08:51:10;0.20;;;0.20;;
59922;SDS011;45778;51.142;3.732;2022-11-25T08:53:38;0.00;;;0.00;;
59922;SDS011;45778;51.142;3.732;2022-11-25T08:56:05;0.52;;;0.52;;
59922;SDS011;45778;51.142;3.732;2022-11-25T08:58:31;0.10;;;0.10;;
59922;SDS011;45778;51.142;3.732;2022-11-25T09:01:00;0.00;;;0.00;;
59922;SDS011;45778;51.142;3.732;2022-11-25T09:03:26;0.00;;;0.00;;
59922;SDS011;45778;51.142;3.732;2022-11-25T09:05:52;0.00;;;0.00;;
59922;SDS011;45778;51.142;3.732;2022-11-25T09:08:18;7.40;;;0.82;;
59922;SDS011;45778;51.142;3.732;2022-11-25T09:10:45;0.00;;;0.00;;
59922;SDS011;45778;51.142;3.732;2022-11-25T09:13:10;0.00;;;0.00;;
59922;SDS011;45778;51.142;3.732;2022-11-25T09:15:37;0.00;;;0.00;;
59922;SDS011;45778;51.142;3.732;2022-11-25T09:18:04;0.00;;;0.00;;
59922;SDS011;45778;51.142;3.732;2022-11-25T09:20:32;0.17;;;0.17;;
59922;SDS011;45778;51.142;3.732;2022-11-25T09:22:59;0.00;;;0.00;;
59922;SDS011;45778;51.142;3.732;2022-11-25T09:25:25;0.63;;;0.63;;
59922;SDS011;45778;51.142;3.732;2022-11-25T09:27:51;0.00;;;0.00;;
59922;SDS011;45778;51.142;3.732;2022-11-25T09:30:17;3.38;;;3.13;;
59922;SDS011;45778;51.142;3.732;2022-11-25T09:32:43;11.18;;;2.58;;
59922;SDS011;45778;51.142;3.732;2022-11-25T09:35:12;0.00;;;0.00;;
59922;SDS011;45778;51.142;3.732;2022-11-25T09:37:38;0.00;;;0.00;;
59922;SDS011;45778;51.142;3.732;2022-11-25T09:40:04;0.00;;;0.00;;
59922;SDS011;45778;51.142;3.732;2022-11-25T09:45:26;0.00;;;0.00;;
59922;SDS011;45778;51.142;3.732;2022-11-25T09:48:46;0.00;;;0.00;;
59922;SDS011;45778;51.142;3.732;2022-11-25T09:51:23;0.32;;;0.32;;
59922;SDS011;45778;51.142;3.732;2022-11-25T09:54:05;0.00;;;0.00;;
59922;SDS011;45778;51.142;3.732;2022-11-25T09:56:40;0.00;;;0.00;;
59922;SDS011;45778;51.142;3.732;2022-11-25T09:59:17;0.00;;;0.00;;
59922;SDS011;45778;51.142;3.732;2022-11-25T10:02:01;0.95;;;0.45;;
59922;SDS011;45778;51.142;3.732;2022-11-25T10:04:48;0.77;;;0.73;;
59922;SDS011;45778;51.142;3.732;2022-11-25T10:07:25;10.23;;;1.55;;
59922;SDS011;45778;51.142;3.732;2022-11-25T10:09:58;0.00;;;0.00;;
59922;SDS011;45778;51.142;3.732;2022-11-25T10:12:28;0.00;;;0.00;;
59922;SDS011;45778;51.142;3.732;2022-11-25T10:15:03;0.22;;;0.22;;
59922;SDS011;45778;51.142;3.732;2022-11-25T10:17:43;0.00;;;0.00;;
59922;SDS011;45778;51.142;3.732;2022-11-25T10:25:36;0.10;;;0.10;;
59922;SDS011;45778;51.142;3.732;2022-11-25T10:28:16;0.35;;;0.35;;
59922;SDS011;45778;51.142;3.732;2022-11-25T10:30:49;0.00;;;0.00;;
59922;SDS011;45778;51.142;3.732;2022-11-25T10:36:20;0.00;;;0.00;;
59922;SDS011;45778;51.142;3.732;2022-11-25T10:39:12;0.90;;;0.43;;
59922;SDS011;45778;51.142;3.732;2022-11-25T10:44:47;0.00;;;0.00;;
59922;SDS011;45778;51.142;3.732;2022-11-25T10:55:36;0.00;;;0.00;;
59922;SDS011;45778;51.142;3.732;2022-11-25T11:03:45;0.00;;;0.00;;
59922;SDS011;45778;51.142;3.732;2022-11-25T11:09:01;0.47;;;0.47;;
59922;SDS011;45778;51.142;3.732;2022-11-25T11:11:27;0.10;;;0.10;;
59922;SDS011;45778;51.142;3.732;2022-11-25T11:13:57;0.00;;;0.00;;
59922;SDS011;45778;51.142;3.732;2022-11-25T11:16:37;1.80;;;1.65;;
59922;SDS011;45778;51.142;3.732;2022-11-25T11:19:23;0.00;;;0.00;;
59922;SDS011;45778;51.142;3.732;2022-11-25T11:21:51;0.00;;;0.00;;
59922;SDS011;45778;51.142;3.732;2022-11-25T11:24:28;1.42;;;1.33;;
59922;SDS011;45778;51.142;3.732;2022-11-25T11:29:32;0.00;;;0.00;;
59922;SDS011;45778;51.142;3.732;2022-11-25T11:31:58;0.55;;;0.55;;
59922;SDS011;45778;51.142;3.732;2022-11-25T11:35:46;0.75;;;0.75;;
59922;SDS011;45778;51.142;3.732;2022-11-25T11:37:45;0.03;;;0.03;;
59922;SDS011;45778;51.142;3.732;2022-11-25T11:40:37;0.00;;;0.00;;
59922;SDS011;45778;51.142;3.732;2022-11-25T11:45:58;0.50;;;0.50;;
59922;SDS011;45778;51.142;3.732;2022-11-25T11:48:37;0.10;;;0.10;;
59922;SDS011;45778;51.142;3.732;2022-11-25T11:51:12;0.17;;;0.17;;
59922;SDS011;45778;51.142;3.732;2022-11-25T12:00:13;11.07;;;2.30;;
59922;SDS011;45778;51.142;3.732;2022-11-25T12:07:37;10.75;;;1.80;;
59922;SDS011;45778;51.142;3.732;2022-11-25T12:10:24;7.35;;;1.50;;
59922;SDS011;45778;51.142;3.732;2022-11-25T12:12:56;11.75;;;2.42;;
59922;SDS011;45778;51.142;3.732;2022-11-25T12:15:50;7.68;;;1.75;;
59922;SDS011;45778;51.142;3.732;2022-11-25T12:24:01;8.70;;;1.92;;
59922;SDS011;45778;51.142;3.732;2022-11-25T12:26:49;12.85;;;2.33;;
59922;SDS011;45778;51.142;3.732;2022-11-25T12:37:31;8.40;;;1.92;;
59922;SDS011;45778;51.142;3.732;2022-11-25T12:40:03;11.63;;;2.20;;
59922;SDS011;45778;51.142;3.732;2022-11-25T12:42:38;13.98;;;2.83;;
59922;SDS011;45778;51.142;3.732;2022-11-25T12:45:19;11.70;;;2.55;;
59922;SDS011;45778;51.142;3.732;2022-11-25T12:47:47;17.60;;;3.28;;
59922;SDS011;45778;51.142;3.732;2022-11-25T12:50:14;14.27;;;2.63;;
59922;SDS011;45778;51.142;3.732;2022-11-25T12:53:01;11.57;;;2.42;;
59922;SDS011;45778;51.142;3.732;2022-11-25T12:55:36;12.60;;;2.58;;
59922;SDS011;45778;51.142;3.732;2022-11-25T13:01:20;12.18;;;2.40;;
59922;SDS011;45778;51.142;3.732;2022-11-25T13:09:39;12.35;;;2.65;;
59922;SDS011;45778;51.142;3.732;2022-11-25T13:15:01;13.07;;;2.53;;
59922;SDS011;45778;51.142;3.732;2022-11-25T13:17:40;11.13;;;3.08;;
59922;SDS011;45778;51.142;3.732;2022-11-25T13:25:29;12.82;;;2.50;;
59922;SDS011;45778;51.142;3.732;2022-11-25T13:28:00;12.65;;;3.33;;
59922;SDS011;45778;51.142;3.732;2022-11-25T13:30:37;15.15;;;3.13;;
59922;SDS011;45778;51.142;3.732;2022-11-25T13:35:56;15.63;;;3.30;;
59922;SDS011;45778;51.142;3.732;2022-11-25T13:38:37;12.15;;;2.30;;
59922;SDS011;45778;51.142;3.732;2022-11-25T13:46:40;12.05;;;2.40;;
59922;SDS011;45778;51.142;3.732;2022-11-25T13:52:03;13.57;;;2.50;;
59922;SDS011;45778;51.142;3.732;2022-11-25T13:54:51;10.57;;;2.30;;
59922;SDS011;45778;51.142;3.732;2022-11-25T13:59:52;14.38;;;2.42;;
59922;SDS011;45778;51.142;3.732;2022-11-25T14:04:53;10.02;;;2.58;;
59922;SDS011;45778;51.142;3.732;2022-11-25T14:22:02;11.13;;;1.63;;
59922;SDS011;45778;51.142;3.732;2022-11-25T14:24:50;9.05;;;2.05;;
59922;SDS011;45778;51.142;3.732;2022-11-25T14:27:21;9.43;;;1.67;;
59922;SDS011;45778;51.142;3.732;2022-11-25T14:29:55;10.68;;;1.77;;
59922;SDS011;45778;51.142;3.732;2022-11-25T14:32:31;8.85;;;2.03;;
59922;SDS011;45778;51.142;3.732;2022-11-25T14:36:00;10.23;;;1.85;;
59922;SDS011;45778;51.142;3.732;2022-11-25T14:38:12;12.93;;;2.40;;
59922;SDS011;45778;51.142;3.732;2022-11-25T14:40:46;9.35;;;2.03;;
59922;SDS011;45778;51.142;3.732;2022-11-25T14:45:47;10.80;;;1.95;;
59922;SDS011;45778;51.142;3.732;2022-11-25T14:48:32;11.38;;;1.83;;
59922;SDS011;45778;51.142;3.732;2022-11-25T14:51:02;6.28;;;1.70;;
59922;SDS011;45778;51.142;3.732;2022-11-25T14:53:40;10.38;;;2.25;;
59922;SDS011;45778;51.142;3.732;2022-11-25T14:56:08;11.32;;;2.03;;
59922;SDS011;45778;51.142;3.732;2022-11-25T14:58:38;15.40;;;2.88;;
59922;SDS011;45778;51.142;3.732;2022-11-25T15:03:46;10.55;;;2.72;;
59922;SDS011;45778;51.142;3.732;2022-11-25T15:06:13;12.98;;;2.42;;
59922;SDS011;45778;51.142;3.732;2022-11-25T15:08:44;11.88;;;2.17;;
59922;SDS011;45778;51.142;3.732;2022-11-25T15:11:18;10.45;;;2.63;;
59922;SDS011;45778;51.142;3.732;2022-11-25T15:13:45;10.02;;;1.98;;
59922;SDS011;45778;51.142;3.732;2022-11-25T15:16:15;13.93;;;2.20;;
59922;SDS011;45778;51.142;3.732;2022-11-25T15:18:47;14.65;;;2.58;;
59922;SDS011;45778;51.142;3.732;2022-11-25T15:21:19;10.38;;;1.90;;
59922;SDS011;45778;51.142;3.732;2022-11-25T15:23:48;13.57;;;3.03;;
59922;SDS011;45778;51.142;3.732;2022-11-25T15:26:18;11.20;;;2.30;;
59922;SDS011;45778;51.142;3.732;2022-11-25T15:28:47;10.23;;;2.13;;
59922;SDS011;45778;51.142;3.732;2022-11-25T15:31:24;11.68;;;2.50;;
59922;SDS011;45778;51.142;3.732;2022-11-25T15:33:54;17.80;;;2.63;;
59922;SDS011;45778;51.142;3.732;2022-11-25T15:36:22;17.02;;;2.65;;
59922;SDS011;45778;51.142;3.732;2022-11-25T15:38:48;17.23;;;2.65;;
59922;SDS011;45778;51.142;3.732;2022-11-25T15:41:18;15.05;;;3.50;;
59922;SDS011;45778;51.142;3.732;2022-11-25T15:43:51;12.05;;;2.70;;
59922;SDS011;45778;51.142;3.732;2022-11-25T15:46:19;14.07;;;3.25;;
59922;SDS011;45778;51.142;3.732;2022-11-25T15:48:46;10.70;;;3.05;;
59922;SDS011;45778;51.142;3.732;2022-11-25T15:53:59;12.10;;;2.75;;
59922;SDS011;45778;51.142;3.732;2022-11-25T15:56:31;9.77;;;3.13;;
59922;SDS011;45778;51.142;3.732;2022-11-25T15:59:01;10.70;;;2.63;;
59922;SDS011;45778;51.142;3.732;2022-11-25T16:01:27;12.48;;;2.85;;
59922;SDS011;45778;51.142;3.732;2022-11-25T16:04:07;15.25;;;3.45;;
59922;SDS011;45778;51.142;3.732;2022-11-25T16:06:55;13.93;;;3.13;;
59922;SDS011;45778;51.142;3.732;2022-11-25T16:11:51;17.00;;;4.13;;
59922;SDS011;45778;51.142;3.732;2022-11-25T16:16:49;21.35;;;5.30;;
59922;SDS011;45778;51.142;3.732;2022-11-25T16:19:15;21.33;;;7.82;;
59922;SDS011;45778;51.142;3.732;2022-11-25T16:21:45;27.15;;;8.90;;
59922;SDS011;45778;51.142;3.732;2022-11-25T16:27:01;15.43;;;4.78;;
59922;SDS011;45778;51.142;3.732;2022-11-25T16:29:46;18.85;;;4.03;;
59922;SDS011;45778;51.142;3.732;2022-11-25T16:32:20;14.45;;;3.55;;
59922;SDS011;45778;51.142;3.732;2022-11-25T16:34:48;16.73;;;3.35;;
59922;SDS011;45778;51.142;3.732;2022-11-25T16:37:14;14.50;;;3.45;;
59922;SDS011;45778;51.142;3.732;2022-11-25T16:39:41;13.10;;;2.90;;
59922;SDS011;45778;51.142;3.732;2022-11-25T16:42:06;16.00;;;3.13;;
59922;SDS011;45778;51.142;3.732;2022-11-25T16:44:41;20.58;;;4.00;;
59922;SDS011;45778;51.142;3.732;2022-11-25T16:47:12;13.32;;;3.72;;
59922;SDS011;45778;51.142;3.732;2022-11-25T16:49:38;23.38;;;5.03;;
59922;SDS011;45778;51.142;3.732;2022-11-25T16:52:04;21.33;;;3.92;;
59922;SDS011;45778;51.142;3.732;2022-11-25T16:54:29;16.25;;;4.57;;
59922;SDS011;45778;51.142;3.732;2022-11-25T16:56:55;17.88;;;4.40;;
59922;SDS011;45778;51.142;3.732;2022-11-25T17:01:51;19.08;;;5.00;;
59922;SDS011;45778;51.142;3.732;2022-11-25T17:04:17;20.02;;;4.88;;
59922;SDS011;45778;51.142;3.732;2022-11-25T17:06:43;23.15;;;6.90;;
59922;SDS011;45778;51.142;3.732;2022-11-25T17:09:09;24.20;;;5.85;;
59922;SDS011;45778;51.142;3.732;2022-11-25T17:11:40;20.40;;;5.25;;
59922;SDS011;45778;51.142;3.732;2022-11-25T17:14:21;18.35;;;5.05;;
59922;SDS011;45778;51.142;3.732;2022-11-25T17:16:50;20.58;;;5.85;;
59922;SDS011;45778;51.142;3.732;2022-11-25T17:19:16;20.15;;;6.43;;
59922;SDS011;45778;51.142;3.732;2022-11-25T17:21:42;19.65;;;5.97;;